Time;durP1;ratioP1;P1;durP2;ratioP2;P2;SDS_P1;SDS_P2;PMS_P1;PMS_P2;Temp;Humidity;BMP_temperature;BMP_pressure;BME280_temperature;BME280_humidity;BME280_pressure;Samples;Min_cycle;Max_cycle;Signal;HPM_P1;HPM_P2
2021/11/18 00:00:35;;;;;;;2.40;2.08;;;10.00;75.70;;;;;;5052578;28;20025;-78
2021/11/18 00:03:03;;;;;;;4.13;2.30;;;10.00;75.70;;;;;;5052357;28;20500;-79
2021/11/18 00:05:30;;;;;;;2.85;1.95;;;9.90;75.70;;;;;;5052656;28;20064;-81
2021/11/18 00:07:56;;;;;;;2.80;1.98;;;9.90;75.70;;;;;;5052140;28;20040;-79
2021/11/18 00:10:25;;;;;;;2.75;2.20;;;10.00;75.70;;;;;;5052324;28;20037;-79
2021/11/18 00:12:52;;;;;;;3.65;2.15;;;9.90;75.70;;;;;;5052048;28;20025;-79
2021/11/18 00:15:18;;;;;;;3.15;2.25;;;9.90;75.70;;;;;;5052855;28;20041;-79
2021/11/18 00:17:44;;;;;;;4.00;2.22;;;10.00;75.70;;;;;;5055782;28;20025;-79
2021/11/18 00:20:14;;;;;;;3.30;2.08;;;9.90;75.70;;;;;;5056418;28;20195;-79
2021/11/18 00:22:44;;;;;;;4.05;2.45;;;9.90;75.70;;;;;;5055998;28;20510;-79
2021/11/18 00:25:14;;;;;;;3.10;2.05;;;9.90;75.70;;;;;;5056357;28;20028;-79
2021/11/18 00:27:40;;;;;;;2.65;2.17;;;9.90;75.70;;;;;;5056149;28;20032;-80
2021/11/18 00:30:09;;;;;;;4.30;2.00;;;9.90;75.70;;;;;;5056280;28;20021;-78
2021/11/18 00:32:36;;;;;;;2.40;1.88;;;9.90;75.70;;;;;;5056769;28;20075;-79
2021/11/18 00:35:08;;;;;;;3.50;2.08;;;9.90;75.70;;;;;;5055941;28;20108;-79
2021/11/18 00:37:36;;;;;;;4.30;2.10;;;9.90;75.70;;;;;;5056516;28;20029;-80
2021/11/18 00:40:05;;;;;;;3.58;2.10;;;9.90;75.70;;;;;;5055986;28;20029;-79
2021/11/18 00:42:30;;;;;;;3.05;2.00;;;9.80;75.70;;;;;;5055953;28;20028;-79
2021/11/18 00:44:57;;;;;;;3.70;2.13;;;9.90;75.70;;;;;;5055872;28;20021;-81
2021/11/18 00:47:25;;;;;;;3.13;2.30;;;9.80;76.30;;;;;;5039481;28;20029;-79
2021/11/18 00:49:51;;;;;;;3.22;2.05;;;9.80;75.70;;;;;;5055879;28;20029;-79
2021/11/18 00:52:18;;;;;;;3.55;2.20;;;9.80;75.70;;;;;;5072281;28;20048;-79
2021/11/18 00:54:44;;;;;;;3.40;2.20;;;9.80;75.70;;;;;;5056522;28;20021;-79
2021/11/18 00:57:10;;;;;;;3.22;2.05;;;9.80;75.70;;;;;;5055810;28;20029;-79
2021/11/18 00:59:37;;;;;;;2.78;2.00;;;9.80;75.70;;;;;;5055808;28;20435;-79
2021/11/18 01:02:04;;;;;;;3.05;1.98;;;9.80;75.70;;;;;;5056539;28;20033;-80
2021/11/18 01:04:31;;;;;;;3.35;2.03;;;9.80;75.70;;;;;;5055520;28;20017;-78
2021/11/18 01:06:58;;;;;;;3.00;1.90;;;9.80;75.70;;;;;;5055488;28;20031;-79
2021/11/18 01:09:25;;;;;;;4.18;2.10;;;9.80;75.70;;;;;;5055252;28;20028;-80
2021/11/18 01:11:51;;;;;;;2.63;1.88;;;9.80;75.70;;;;;;5055581;28;20032;-79
2021/11/18 01:14:22;;;;;;;3.42;2.40;;;9.80;75.70;;;;;;5039392;28;20443;-79
2021/11/18 01:16:50;;;;;;;3.88;2.22;;;9.80;75.70;;;;;;5055458;28;20405;-79
2021/11/18 01:19:18;;;;;;;2.70;2.08;;;9.80;75.70;;;;;;5055138;28;20033;-79
2021/11/18 01:21:47;;;;;;;3.65;2.20;;;9.80;75.70;;;;;;5055902;28;20037;-79
2021/11/18 01:24:13;;;;;;;4.47;2.40;;;9.70;75.70;;;;;;5055294;28;20104;-82
2021/11/18 01:27:10;;;;;;;3.22;2.03;;;9.70;75.70;;;;;;5063851;28;20037;-79
2021/11/18 01:29:35;;;;;;;3.47;2.20;;;9.70;75.70;;;;;;5055056;28;20090;-79
2021/11/18 01:32:01;;;;;;;4.13;2.45;;;9.70;75.70;;;;;;5054548;28;20025;-79
2021/11/18 01:34:32;;;;;;;3.03;2.10;;;9.70;75.70;;;;;;5056002;28;20381;-79
2021/11/18 01:36:57;;;;;;;5.15;2.42;;;9.70;75.80;;;;;;5054819;28;20021;-80
2021/11/18 01:39:23;;;;;;;3.63;2.55;;;9.70;75.80;;;;;;5054978;28;20040;-80
2021/11/18 01:41:49;;;;;;;4.50;2.58;;;9.60;75.70;;;;;;5055643;28;20032;-78
2021/11/18 01:44:36;;;;;;;2.78;1.85;;;9.60;75.70;;;;;;5054994;28;20021;-79
2021/11/18 01:47:08;;;;;;;3.03;2.30;;;9.60;75.80;;;;;;5055040;28;20063;-79
2021/11/18 01:49:35;;;;;;;3.33;2.28;;;9.70;75.80;;;;;;5055094;28;20123;-79
2021/11/18 01:52:04;;;;;;;4.10;2.40;;;9.60;75.70;;;;;;5054736;28;20433;-80
2021/11/18 01:54:34;;;;;;;4.93;2.28;;;9.60;75.80;;;;;;5054989;28;20473;-79
2021/11/18 01:57:03;;;;;;;4.85;2.65;;;9.60;75.80;;;;;;5070956;28;20024;-79
2021/11/18 01:59:34;;;;;;;3.72;2.25;;;9.60;75.80;;;;;;5037900;28;20541;-79
2021/11/18 02:02:22;;;;;;;4.32;2.28;;;9.60;75.80;;;;;;5055869;28;20048;-78
2021/11/18 02:05:11;;;;;;;4.05;2.40;;;9.50;75.70;;;;;;5068279;28;20083;-79
2021/11/18 02:07:42;;;;;;;3.70;2.22;;;9.60;75.80;;;;;;5054768;28;20363;-79
2021/11/18 02:10:31;;;;;;;3.63;2.28;;;9.50;75.80;;;;;;5054592;28;20033;-79
2021/11/18 02:13:01;;;;;;;3.20;2.17;;;9.60;75.90;;;;;;5054530;28;20048;-79
2021/11/18 02:15:34;;;;;;;3.65;2.47;;;9.50;75.80;;;;;;5054520;28;20405;-79
2021/11/18 02:18:02;;;;;;;4.30;2.40;;;9.50;75.80;;;;;;5053857;28;20397;-78
2021/11/18 02:20:35;;;;;;;4.93;2.47;;;9.50;75.80;;;;;;5055249;28;20035;-79
2021/11/18 02:23:11;;;;;;;4.85;2.30;;;9.50;75.80;;;;;;5070746;28;20365;-79
2021/11/18 02:25:40;;;;;;;4.32;2.55;;;9.50;75.90;;;;;;5055367;28;20385;-80
2021/11/18 02:28:07;;;;;;;3.50;2.40;;;9.50;75.90;;;;;;5053688;28;20055;-79
2021/11/18 02:30:38;;;;;;;3.13;2.35;;;9.40;75.80;;;;;;5053957;28;20055;-79
2021/11/18 02:33:06;;;;;;;4.05;2.25;;;9.40;75.80;;;;;;5037423;28;20131;-79
2021/11/18 02:35:34;;;;;;;3.58;2.47;;;9.50;75.90;;;;;;5054015;28;20087;-80
2021/11/18 02:38:00;;;;;;;3.35;2.42;;;9.40;75.90;;;;;;5053863;28;20041;-79
2021/11/18 02:40:27;;;;;;;3.55;2.17;;;9.40;75.80;;;;;;5053139;28;20179;-79
2021/11/18 02:42:55;;;;;;;3.60;2.53;;;9.50;75.90;;;;;;5054058;28;20021;-80
2021/11/18 02:45:25;;;;;;;7.05;3.03;;;9.40;75.90;;;;;;5053508;28;20024;-80
2021/11/18 02:47:51;;;;;;;3.90;2.42;;;9.40;75.90;;;;;;5053636;28;20036;-80
2021/11/18 02:50:22;;;;;;;5.15;2.85;;;9.50;75.90;;;;;;5053517;28;20029;-79
2021/11/18 02:52:48;;;;;;;4.32;3.08;;;9.40;75.90;;;;;;5053703;28;20025;-79
2021/11/18 02:55:20;;;;;;;3.85;2.75;;;9.40;75.90;;;;;;5054282;28;20193;-80
2021/11/18 02:57:47;;;;;;;3.63;2.30;;;9.40;75.90;;;;;;5053458;28;20032;-81
2021/11/18 03:00:20;;;;;;;3.28;2.22;;;9.40;75.90;;;;;;5053459;28;20024;-80
2021/11/18 03:02:47;;;;;;;4.18;2.50;;;9.40;75.90;;;;;;5053392;28;20029;-79
2021/11/18 03:05:16;;;;;;;4.50;2.58;;;9.40;75.90;;;;;;5053410;28;20469;-79
2021/11/18 03:07:43;;;;;;;4.07;2.60;;;9.40;75.90;;;;;;5053228;28;20029;-79
2021/11/18 03:10:11;;;;;;;4.35;2.40;;;9.40;75.90;;;;;;5053774;28;20044;-79
2021/11/18 03:12:37;;;;;;;4.88;2.83;;;9.40;75.90;;;;;;5053977;28;20507;-80
2021/11/18 03:15:05;;;;;;;3.72;2.47;;;9.40;75.90;;;;;;5053089;28;20036;-80
2021/11/18 03:17:33;;;;;;;3.40;2.50;;;9.40;75.90;;;;;;5052965;28;20037;-79
2021/11/18 03:20:25;;;;;;;3.30;2.35;;;9.40;75.90;;;;;;5056421;28;20029;-79
2021/11/18 03:22:52;;;;;;;3.83;2.55;;;9.40;75.90;;;;;;5052924;28;20120;-81
2021/11/18 03:25:22;;;;;;;4.30;2.60;;;9.40;76.00;;;;;;5036497;28;20021;-79
2021/11/18 03:27:49;;;;;;;4.03;2.45;;;9.40;76.00;;;;;;5053166;28;20037;-79
2021/11/18 03:30:24;;;;;;;4.00;2.70;;;9.40;76.00;;;;;;5053093;28;20120;-79
2021/11/18 03:32:53;;;;;;;4.35;2.78;;;9.40;76.00;;;;;;5052106;28;20063;-80
2021/11/18 03:35:20;;;;;;;4.10;2.55;;;9.40;76.00;;;;;;5052831;28;20040;-79
2021/11/18 03:37:48;;;;;;;4.78;2.63;;;9.40;76.00;;;;;;5052550;28;20029;-79
2021/11/18 03:40:15;;;;;;;4.53;2.42;;;9.40;76.10;;;;;;5052942;28;20033;-79
2021/11/18 03:42:43;;;;;;;4.70;2.55;;;9.40;76.10;;;;;;5053428;28;20442;-79
2021/11/18 03:45:15;;;;;;;3.90;2.63;;;9.40;76.10;;;;;;5052984;28;20063;-80
2021/11/18 03:47:42;;;;;;;3.45;2.50;;;9.40;76.10;;;;;;5052974;28;20024;-79
2021/11/18 03:50:09;;;;;;;3.83;2.63;;;9.40;76.10;;;;;;5053351;28;20021;-79
2021/11/18 03:52:40;;;;;;;4.22;2.70;;;9.40;76.10;;;;;;5051946;28;20120;-78
2021/11/18 03:55:09;;;;;;;4.10;2.67;;;9.40;76.10;;;;;;5052444;28;20025;-79
2021/11/18 03:57:35;;;;;;;4.18;2.60;;;9.40;76.10;;;;;;5053757;28;20122;-80
2021/11/18 04:00:12;;;;;;;3.67;2.42;;;9.40;76.10;;;;;;5069196;28;20028;-79
2021/11/18 04:02:42;;;;;;;3.35;2.42;;;9.40;76.10;;;;;;5053644;28;20504;-79
2021/11/18 04:05:11;;;;;;;3.78;2.65;;;9.40;76.10;;;;;;5052710;28;20106;-79
2021/11/18 04:07:42;;;;;;;3.75;2.47;;;9.40;76.10;;;;;;5052638;28;20108;-80
2021/11/18 04:10:13;;;;;;;3.10;2.33;;;9.40;76.10;;;;;;5052694;28;20041;-79
2021/11/18 04:12:39;;;;;;;3.78;2.50;;;9.40;76.10;;;;;;5052533;28;20435;-79
2021/11/18 04:15:08;;;;;;;3.55;2.42;;;9.40;76.10;;;;;;5052507;28;20032;-79
2021/11/18 04:17:33;;;;;;;5.15;2.70;;;9.40;76.20;;;;;;5052472;28;20029;-79
2021/11/18 04:19:59;;;;;;;5.50;2.67;;;9.40;76.10;;;;;;5052021;28;20466;-79
2021/11/18 04:22:27;;;;;;;4.10;2.42;;;9.40;76.10;;;;;;5052437;28;20091;-79
2021/11/18 04:24:53;;;;;;;3.55;2.25;;;9.40;76.10;;;;;;5052255;28;20370;-80
2021/11/18 04:27:19;;;;;;;3.72;2.25;;;9.40;76.10;;;;;;5052266;28;20541;-79
2021/11/18 04:29:47;;;;;;;4.15;2.60;;;9.40;76.10;;;;;;5035768;28;20029;-79
2021/11/18 04:32:19;;;;;;;3.20;2.22;;;9.40;76.10;;;;;;5052872;28;20108;-80
2021/11/18 04:34:49;;;;;;;4.33;2.57;;;9.40;76.20;;;;;;5052974;28;20040;-79
2021/11/18 04:37:19;;;;;;;3.17;2.17;;;9.40;76.10;;;;;;5052940;28;20128;-79
2021/11/18 04:39:45;;;;;;;3.53;2.42;;;9.40;76.10;;;;;;5052212;28;20065;-80
2021/11/18 04:42:13;;;;;;;2.92;2.05;;;9.40;76.20;;;;;;5035718;28;20127;-79
2021/11/18 04:44:47;;;;;;;3.22;2.28;;;9.50;76.20;;;;;;5052579;28;20040;-80
2021/11/18 04:47:13;;;;;;;3.15;2.08;;;9.40;76.10;;;;;;5052256;28;20051;-79
2021/11/18 04:49:44;;;;;;;3.75;2.40;;;9.50;76.20;;;;;;5035725;28;20037;-79
2021/11/18 04:52:12;;;;;;;2.78;2.03;;;9.40;76.20;;;;;;5052209;28;20033;-79
2021/11/18 04:54:37;;;;;;;3.45;2.50;;;9.50;76.20;;;;;;5052688;28;20025;-79
2021/11/18 04:57:04;;;;;;;4.10;2.72;;;9.40;76.10;;;;;;5052397;28;20120;-79
2021/11/18 04:59:36;;;;;;;3.35;2.20;;;9.50;76.20;;;;;;5036378;28;20094;-80
2021/11/18 05:02:03;;;;;;;3.15;2.30;;;9.40;76.10;;;;;;5052383;28;20072;-79
2021/11/18 05:04:29;;;;;;;4.32;2.78;;;9.40;76.10;;;;;;5056247;28;20033;-79
2021/11/18 05:06:55;;;;;;;4.10;2.65;;;9.50;76.20;;;;;;5039167;28;20037;-79
2021/11/18 05:09:21;;;;;;;4.30;2.63;;;9.50;76.20;;;;;;5056232;28;20552;-80
2021/11/18 05:11:47;;;;;;;3.78;2.50;;;9.50;76.20;;;;;;5055762;28;20071;-79
2021/11/18 05:14:14;;;;;;;2.95;2.22;;;9.50;76.20;;;;;;5055823;28;20033;-79
2021/11/18 05:16:40;;;;;;;2.80;2.20;;;9.50;76.20;;;;;;5039592;28;20058;-80
2021/11/18 05:19:07;;;;;;;3.65;2.20;;;9.50;76.20;;;;;;5055688;28;20067;-80
2021/11/18 05:21:33;;;;;;;4.45;2.50;;;9.50;76.20;;;;;;5055890;28;20330;-81
2021/11/18 05:24:03;;;;;;;4.25;2.38;;;9.50;76.20;;;;;;5055364;28;20465;-79
2021/11/18 05:26:29;;;;;;;3.28;2.35;;;9.50;76.20;;;;;;5055368;28;20029;-79
2021/11/18 05:28:55;;;;;;;3.70;2.50;;;9.50;76.20;;;;;;5056000;28;20481;-78
2021/11/18 05:31:23;;;;;;;3.33;2.25;;;9.50;76.20;;;;;;5054947;28;20032;-78
2021/11/18 05:34:02;;;;;;;3.58;2.40;;;9.50;76.20;;;;;;5054542;28;20048;-78
2021/11/18 05:36:34;;;;;;;3.10;2.50;;;9.50;76.20;;;;;;5056476;28;20526;-79
2021/11/18 05:39:00;;;;;;;4.05;2.63;;;9.50;76.20;;;;;;5054854;28;20065;-79
2021/11/18 05:41:26;;;;;;;4.10;2.58;;;9.50;76.20;;;;;;5054681;28;20021;-78
2021/11/18 05:43:52;;;;;;;3.85;2.78;;;9.60;76.20;;;;;;5055302;28;20021;-78
2021/11/18 05:46:20;;;;;;;3.60;2.40;;;9.50;76.20;;;;;;5054454;28;20033;-78
2021/11/18 05:48:46;;;;;;;3.30;2.47;;;9.50;76.20;;;;;;5054794;28;20036;-77
2021/11/18 05:51:14;;;;;;;3.55;2.38;;;9.60;76.20;;;;;;5054500;28;20381;-78
2021/11/18 05:53:43;;;;;;;5.43;2.50;;;9.60;76.20;;;;;;5055679;28;20025;-79
2021/11/18 05:56:12;;;;;;;3.97;2.58;;;9.60;76.20;;;;;;5054212;28;20029;-79
2021/11/18 05:58:41;;;;;;;4.45;2.50;;;9.60;76.20;;;;;;5055123;28;20116;-78
2021/11/18 06:01:09;;;;;;;4.32;2.40;;;9.60;76.20;;;;;;5071045;28;20029;-77
2021/11/18 06:03:35;;;;;;;3.95;2.58;;;9.60;76.20;;;;;;5054445;28;20020;-78
2021/11/18 06:06:03;;;;;;;4.68;2.85;;;9.60;76.20;;;;;;5070927;28;20068;-76
2021/11/18 06:08:28;;;;;;;3.85;2.47;;;9.60;76.20;;;;;;5054881;28;20033;-77
2021/11/18 06:11:01;;;;;;;4.18;2.72;;;9.60;76.20;;;;;;5054485;28;20486;-77
2021/11/18 06:13:29;;;;;;;3.95;2.80;;;9.60;76.20;;;;;;5054058;28;20032;-77
2021/11/18 06:15:56;;;;;;;5.07;2.60;;;9.60;76.20;;;;;;5053165;28;20033;-77
2021/11/18 06:18:22;;;;;;;4.22;2.60;;;9.60;76.20;;;;;;5053959;28;20044;-79
2021/11/18 06:20:48;;;;;;;3.83;2.50;;;9.60;76.20;;;;;;5037562;28;20025;-77
2021/11/18 06:23:14;;;;;;;4.82;2.50;;;9.60;76.20;;;;;;5054132;28;20461;-77
2021/11/18 06:25:43;;;;;;;4.72;2.47;;;9.60;76.20;;;;;;5053999;28;20387;-77
2021/11/18 06:28:10;;;;;;;3.53;2.30;;;9.60;76.20;;;;;;5054010;28;20483;-78
2021/11/18 06:30:45;;;;;;;4.70;2.80;;;9.70;76.30;;;;;;5054020;28;20067;-78
2021/11/18 06:33:12;;;;;;;3.78;2.40;;;9.60;76.20;;;;;;5053733;28;20134;-77
2021/11/18 06:35:38;;;;;;;4.93;2.63;;;9.70;76.30;;;;;;5053661;28;20446;-77
2021/11/18 06:38:05;;;;;;;4.45;2.47;;;9.60;76.20;;;;;;5053639;28;20124;-78
2021/11/18 06:40:30;;;;;;;4.80;2.97;;;9.70;76.30;;;;;;5053594;28;20441;-77
2021/11/18 06:42:57;;;;;;;5.38;3.17;;;9.70;76.30;;;;;;5053642;28;20029;-78
2021/11/18 06:45:46;;;;;;;4.93;2.78;;;9.70;76.30;;;;;;5067718;28;20053;-77
2021/11/18 06:48:18;;;;;;;4.20;2.58;;;9.70;76.20;;;;;;5054225;28;20029;-78
2021/11/18 06:50:52;;;;;;;3.45;2.80;;;9.70;76.30;;;;;;5054986;28;20033;-78
2021/11/18 06:53:19;;;;;;;4.57;2.53;;;9.70;76.30;;;;;;5053415;28;20044;-78
2021/11/18 06:55:45;;;;;;;5.57;2.83;;;9.70;76.30;;;;;;5053372;28;20017;-77
2021/11/18 06:58:12;;;;;;;7.38;3.28;;;9.70;76.30;;;;;;5053106;28;20481;-78
2021/11/18 07:00:38;;;;;;;4.85;2.63;;;9.70;76.30;;;;;;5053472;28;20465;-77
2021/11/18 07:03:09;;;;;;;4.22;2.38;;;9.70;76.30;;;;;;5053221;28;20092;-79
2021/11/18 07:05:36;;;;;;;4.20;2.83;;;9.70;76.30;;;;;;5052928;28;20037;-77
2021/11/18 07:08:04;;;;;;;4.88;2.63;;;9.70;76.30;;;;;;5053479;28;20032;-79
2021/11/18 07:10:30;;;;;;;5.18;2.65;;;9.70;76.30;;;;;;5052997;28;20349;-77
2021/11/18 07:13:04;;;;;;;4.95;2.75;;;9.70;76.20;;;;;;5054751;28;20033;-79
2021/11/18 07:15:32;;;;;;;3.40;2.50;;;9.70;76.20;;;;;;5053897;28;20037;-79
2021/11/18 07:17:59;;;;;;;4.45;2.50;;;9.70;76.20;;;;;;5052917;28;20120;-78
2021/11/18 07:20:26;;;;;;;3.42;2.33;;;9.80;76.30;;;;;;5053870;28;20572;-78
2021/11/18 07:22:53;;;;;;;4.60;2.80;;;9.80;76.30;;;;;;5053359;28;20067;-78
2021/11/18 07:25:41;;;;;;;4.80;2.97;;;9.80;76.30;;;;;;5053583;28;20090;-78
2021/11/18 07:28:09;;;;;;;5.22;3.17;;;9.80;76.20;;;;;;5052910;28;20037;-78
2021/11/18 07:30:36;;;;;;;4.05;2.67;;;9.80;76.30;;;;;;5053041;28;20021;-78
2021/11/18 07:33:03;;;;;;;5.07;3.03;;;9.80;76.30;;;;;;5052525;28;20056;-78
2021/11/18 07:35:30;;;;;;;4.47;2.88;;;9.80;76.30;;;;;;5052584;28;20029;-79
2021/11/18 07:37:58;;;;;;;4.85;2.88;;;9.80;76.30;;;;;;5052898;28;20025;-78
2021/11/18 07:40:29;;;;;;;4.25;2.67;;;9.80;76.30;;;;;;5052701;28;20024;-78
2021/11/18 07:43:00;;;;;;;5.10;2.83;;;9.80;76.30;;;;;;5053330;28;20029;-78
2021/11/18 07:45:46;;;;;;;4.65;2.90;;;9.80;76.30;;;;;;5054509;28;20048;-78
2021/11/18 07:48:25;;;;;;;3.97;2.58;;;9.80;76.20;;;;;;5068181;28;20482;-78
2021/11/18 07:50:53;;;;;;;5.10;3.10;;;9.80;76.30;;;;;;5052561;28;20354;-78
2021/11/18 07:53:21;;;;;;;5.15;2.88;;;9.80;76.30;;;;;;5052268;28;20025;-78
2021/11/18 07:55:47;;;;;;;4.30;2.90;;;9.80;76.30;;;;;;5052411;28;20043;-78
2021/11/18 07:58:15;;;;;;;3.75;2.65;;;9.80;76.20;;;;;;5052628;28;20124;-78
2021/11/18 08:00:44;;;;;;;4.72;2.92;;;9.80;76.30;;;;;;5052387;28;20048;-79
2021/11/18 08:03:23;;;;;;;5.85;2.97;;;9.80;76.20;;;;;;5053123;28;20035;-79
2021/11/18 08:06:10;;;;;;;6.20;3.10;;;9.90;76.30;;;;;;5067338;28;20040;-78
2021/11/18 08:08:45;;;;;;;5.18;3.10;;;9.80;76.20;;;;;;5052933;28;20032;-80
2021/11/18 08:11:20;;;;;;;4.80;3.13;;;9.80;76.20;;;;;;5052517;28;20029;-79
2021/11/18 08:13:47;;;;;;;4.53;2.88;;;9.80;76.30;;;;;;5052480;28;20025;-80
2021/11/18 08:16:13;;;;;;;4.43;2.78;;;9.90;76.30;;;;;;5052124;28;20025;-78
2021/11/18 08:18:45;;;;;;;5.03;3.10;;;9.90;76.30;;;;;;5053360;28;20076;-78
2021/11/18 08:21:12;;;;;;;6.43;3.17;;;9.90;76.30;;;;;;5052327;28;20033;-83
2021/11/18 08:23:39;;;;;;;6.38;3.33;;;9.90;76.20;;;;;;5052287;28;20453;-79
2021/11/18 08:26:08;;;;;;;5.20;2.95;;;9.90;76.20;;;;;;5052016;28;20024;-79
2021/11/18 08:28:34;;;;;;;5.93;2.95;;;9.90;76.20;;;;;;5068736;28;20017;-80
2021/11/18 08:31:01;;;;;;;5.47;2.83;;;9.90;76.20;;;;;;5052008;28;20033;-79
2021/11/18 08:33:32;;;;;;;4.85;3.35;;;9.90;76.30;;;;;;5051705;28;20140;-80
2021/11/18 08:35:58;;;;;;;7.22;3.17;;;9.90;76.20;;;;;;5052720;28;20036;-79
2021/11/18 08:38:26;;;;;;;4.65;2.85;;;9.90;76.20;;;;;;5053878;28;20037;-80
2021/11/18 08:41:00;;;;;;;6.35;3.53;;;9.90;76.20;;;;;;5056770;28;20100;-79
2021/11/18 08:43:26;;;;;;;6.68;3.60;;;9.90;76.20;;;;;;5055898;28;20090;-80
2021/11/18 08:45:53;;;;;;;6.93;3.47;;;9.90;76.20;;;;;;5055806;28;20445;-80
2021/11/18 08:48:20;;;;;;;5.15;3.03;;;9.90;76.20;;;;;;5056065;28;20114;-80
2021/11/18 08:50:50;;;;;;;4.82;3.25;;;9.90;76.30;;;;;;5055756;28;20025;-79
2021/11/18 08:53:20;;;;;;;7.53;3.40;;;9.90;76.30;;;;;;5056075;28;20418;-79
2021/11/18 08:55:47;;;;;;;5.20;3.40;;;9.90;76.20;;;;;;5038996;28;20063;-79
2021/11/18 08:58:17;;;;;;;5.90;3.60;;;10.00;76.30;;;;;;5056275;28;20021;-79
2021/11/18 09:00:55;;;;;;;5.57;3.40;;;9.90;76.30;;;;;;5056805;28;20036;-81
2021/11/18 09:03:23;;;;;;;6.85;3.60;;;10.00;76.30;;;;;;5055443;28;20032;-77
2021/11/18 09:05:50;;;;;;;5.50;3.42;;;10.00;76.30;;;;;;5055683;28;20085;-78
2021/11/18 09:08:16;;;;;;;5.43;3.40;;;10.00;76.90;;;;;;5055459;28;20385;-77
2021/11/18 09:10:50;;;;;;;6.97;3.50;;;10.00;76.30;;;;;;5055340;28;20060;-77
2021/11/18 09:13:18;;;;;;;6.80;3.28;;;10.00;76.30;;;;;;5055773;28;20029;-79
2021/11/18 09:15:44;;;;;;;7.60;4.10;;;10.00;76.30;;;;;;5056798;28;20061;-81
2021/11/18 09:18:12;;;;;;;6.65;3.95;;;10.00;76.30;;;;;;5055408;28;20029;-77
2021/11/18 09:20:50;;;;;;;7.32;3.60;;;10.00;76.30;;;;;;5055413;28;20374;-77
2021/11/18 09:23:17;;;;;;;6.80;3.55;;;10.00;76.30;;;;;;5071787;28;20037;-78
2021/11/18 09:25:49;;;;;;;5.60;3.25;;;10.10;76.40;;;;;;5055081;28;20025;-78
2021/11/18 09:28:19;;;;;;;7.60;3.63;;;10.10;76.40;;;;;;5055363;28;20116;-79
2021/11/18 09:31:19;;;;;;;6.30;3.70;;;10.10;76.40;;;;;;5055428;28;20065;-76
2021/11/18 09:33:47;;;;;;;6.55;3.47;;;10.10;76.30;;;;;;5054779;28;20056;-79
2021/11/18 09:36:17;;;;;;;6.93;3.95;;;10.10;76.40;;;;;;5056237;28;20118;-77
2021/11/18 09:38:45;;;;;;;6.85;3.92;;;10.10;76.40;;;;;;5054861;28;20033;-77
2021/11/18 09:41:26;;;;;;;6.38;3.83;;;10.10;76.40;;;;;;5054698;28;20025;-78
2021/11/18 09:44:17;;;;;;;7.65;3.72;;;10.10;76.50;;;;;;5055109;28;20025;-77
2021/11/18 09:47:01;;;;;;;7.38;3.55;;;10.10;76.50;;;;;;5054661;28;20367;-77
2021/11/18 09:50:07;;;;;;;6.15;3.53;;;10.10;76.50;;;;;;5053439;28;20086;-77
2021/11/18 09:53:22;;;;;;;5.90;3.50;;;10.20;76.70;;;;;;5055342;28;20124;-78
2021/11/18 09:55:55;;;;;;;6.47;3.70;;;10.20;76.60;;;;;;5070946;28;20048;-77
2021/11/18 09:59:05;;;;;;;6.53;3.40;;;10.20;76.50;;;;;;5054572;28;20138;-79
2021/11/18 10:02:10;;;;;;;5.85;3.40;;;10.20;76.70;;;;;;5054805;28;20083;-79
2021/11/18 10:04:42;;;;;;;5.03;3.20;;;10.20;76.70;;;;;;5055386;28;20103;-77
2021/11/18 10:07:20;;;;;;;5.30;3.33;;;10.20;76.50;;;;;;5054619;28;20029;-77
2021/11/18 10:10:15;;;;;;;8.27;4.10;;;10.20;76.70;;;;;;5054649;28;20503;-78
2021/11/18 10:13:18;;;;;;;7.00;3.90;;;10.20;76.70;;;;;;5054754;28;20369;-78
2021/11/18 10:15:54;;;;;;;9.13;3.75;;;10.30;76.80;;;;;;5053957;28;20029;-78
2021/11/18 10:18:27;;;;;;;6.50;3.85;;;10.30;76.70;;;;;;5055081;28;20118;-77
2021/11/18 10:21:09;;;;;;;7.43;4.15;;;10.30;76.70;;;;;;5055404;28;20029;-77
2021/11/18 10:23:34;;;;;;;8.00;4.13;;;10.30;76.80;;;;;;5070877;28;20033;-80
2021/11/18 10:26:11;;;;;;;8.25;3.97;;;10.30;76.60;;;;;;5055273;28;20028;-84
2021/11/18 10:29:01;;;;;;;7.43;3.85;;;10.40;76.80;;;;;;5070772;28;20079;-79
2021/11/18 10:31:45;;;;;;;6.68;3.83;;;10.40;76.80;;;;;;5055979;28;20021;-80
2021/11/18 10:34:22;;;;;;;7.95;4.00;;;10.50;76.80;;;;;;5055187;28;20049;-78
2021/11/18 10:37:06;;;;;;;6.82;3.70;;;10.40;76.70;;;;;;5070528;28;20029;-79
2021/11/18 10:39:59;;;;;;;6.75;4.05;;;10.40;76.80;;;;;;5054988;28;20492;-80
2021/11/18 10:42:34;;;;;;;6.40;3.70;;;10.50;76.90;;;;;;5053799;28;20087;-80
2021/11/18 10:45:03;;;;;;;7.60;3.97;;;10.50;76.80;;;;;;5053471;28;20029;-79
2021/11/18 10:47:56;;;;;;;6.53;3.90;;;10.50;76.80;;;;;;5054266;28;20029;-77
2021/11/18 10:50:46;;;;;;;6.97;3.90;;;10.60;77.00;;;;;;5054587;28;20412;-80
2021/11/18 10:53:22;;;;;;;6.72;3.72;;;10.50;76.90;;;;;;5054207;28;20036;-78
2021/11/18 10:56:04;;;;;;;6.53;3.55;;;10.60;76.90;;;;;;5055173;28;20033;-78
2021/11/18 10:58:36;;;;;;;10.35;4.90;;;10.60;76.90;;;;;;5054538;28;20037;-80
2021/11/18 11:01:11;;;;;;;7.70;4.18;;;10.60;76.90;;;;;;5052850;28;20040;-79
2021/11/18 11:03:42;;;;;;;8.77;3.83;;;10.70;77.00;;;;;;5054528;28;20052;-78
2021/11/18 11:06:27;;;;;;;5.85;3.50;;;10.70;76.90;;;;;;5054377;28;20020;-79
2021/11/18 11:09:09;;;;;;;6.47;3.58;;;10.70;76.90;;;;;;5053464;28;20473;-80
2021/11/18 11:11:39;;;;;;;7.57;4.00;;;10.80;76.90;;;;;;5053527;28;20029;-79
2021/11/18 11:14:20;;;;;;;8.23;4.20;;;10.80;76.90;;;;;;5053036;28;20086;-79
2021/11/18 11:17:15;;;;;;;6.43;3.50;;;10.80;77.10;;;;;;5052874;28;20087;-79
2021/11/18 11:20:13;;;;;;;9.15;4.50;;;10.90;77.10;;;;;;5053210;28;20178;-79
2021/11/18 11:22:48;;;;;;;7.63;4.03;;;10.80;77.10;;;;;;5003453;28;20049;-79
2021/11/18 11:25:32;;;;;;;6.35;3.63;;;10.90;77.00;;;;;;5052633;28;20028;-79
2021/11/18 11:28:14;;;;;;;6.53;3.65;;;10.90;77.00;;;;;;5053122;28;20029;-79
2021/11/18 11:31:05;;;;;;;7.13;3.83;;;10.90;77.00;;;;;;5052745;28;20024;-79
2021/11/18 11:33:44;;;;;;;6.72;3.70;;;11.00;77.30;;;;;;5054501;28;20040;-80
2021/11/18 11:36:46;;;;;;;7.18;3.92;;;11.00;77.10;;;;;;5052727;28;20119;-80
2021/11/18 11:39:24;;;;;;;7.05;3.65;;;11.00;77.20;;;;;;5052367;28;20044;-80
2021/11/18 11:42:17;;;;;;;6.63;3.78;;;11.00;77.10;;;;;;5054726;28;20061;-80
2021/11/18 11:45:10;;;;;;;8.68;4.13;;;11.10;77.20;;;;;;5052391;28;20029;-79
2021/11/18 11:47:54;;;;;;;7.88;3.83;;;11.10;77.20;;;;;;5054115;28;20037;-80
2021/11/18 11:50:34;;;;;;;7.65;3.83;;;11.10;77.00;;;;;;5053638;28;20068;-80
2021/11/18 11:53:38;;;;;;;6.82;3.80;;;11.10;77.20;;;;;;5052599;28;20056;-79
2021/11/18 11:56:07;;;;;;;7.18;3.42;;;11.20;77.30;;;;;;5052749;28;20415;-80
2021/11/18 11:58:43;;;;;;;7.90;3.75;;;11.20;77.10;;;;;;5053086;28;20068;-80
2021/11/18 12:01:25;;;;;;;6.38;3.53;;;11.20;77.10;;;;;;5052780;28;20483;-80
2021/11/18 12:04:08;;;;;;;8.07;3.67;;;11.20;77.20;;;;;;5068980;28;20392;-81
2021/11/18 12:06:39;;;;;;;7.82;3.55;;;11.30;77.20;;;;;;5052293;28;20035;-79
2021/11/18 12:09:25;;;;;;;6.03;3.50;;;11.30;77.10;;;;;;5052295;28;20129;-77
2021/11/18 12:11:54;;;;;;;7.35;3.40;;;11.30;77.10;;;;;;5052525;28;20032;-77
2021/11/18 12:14:27;;;;;;;6.45;3.05;;;11.40;77.10;;;;;;5057183;28;20013;-80
2021/11/18 12:17:30;;;;;;;7.20;3.40;;;11.40;77.10;;;;;;5056536;28;20025;-78
2021/11/18 12:20:03;;;;;;;4.65;2.92;;;11.40;77.20;;;;;;5056378;28;20039;-79
2021/11/18 12:22:37;;;;;;;5.93;3.13;;;11.40;77.00;;;;;;5057290;28;20064;-79
2021/11/18 12:25:21;;;;;;;6.32;3.35;;;11.50;77.10;;;;;;5056494;28;20477;-78
2021/11/18 12:28:11;;;;;;;6.43;3.13;;;11.50;77.10;;;;;;5057130;28;20378;-79
2021/11/18 12:30:46;;;;;;;5.85;2.88;;;11.50;77.10;;;;;;5056430;28;20017;-77
2021/11/18 12:33:18;;;;;;;5.95;3.25;;;11.60;77.00;;;;;;5055632;28;20053;-77
2021/11/18 12:35:53;;;;;;;5.35;3.30;;;11.60;77.00;;;;;;5056749;28;20446;-77
2021/11/18 12:38:27;;;;;;;5.68;3.45;;;11.60;77.00;;;;;;5057230;28;20040;-76
2021/11/18 12:41:25;;;;;;;6.97;3.03;;;11.70;77.00;;;;;;5055903;28;20048;-77
2021/11/18 12:44:03;;;;;;;5.10;2.72;;;11.70;77.00;;;;;;5056098;28;20029;-77
2021/11/18 12:46:58;;;;;;;6.10;3.22;;;11.70;77.00;;;;;;5056048;28;20037;-77
2021/11/18 12:49:42;;;;;;;6.82;3.63;;;11.80;77.10;;;;;;5055696;28;20060;-79
2021/11/18 12:52:20;;;;;;;7.18;2.72;;;11.80;76.80;;;;;;5056748;28;20428;-77
2021/11/18 12:55:37;;;;;;;5.85;2.90;;;11.90;76.90;;;;;;5056390;28;20087;-77
2021/11/18 12:58:24;;;;;;;4.97;2.95;;;11.90;77.00;;;;;;5015047;28;20036;-77
2021/11/18 13:01:20;;;;;;;6.07;2.80;;;12.00;76.80;;;;;;4998276;28;20543;-76
2021/11/18 13:03:51;;;;;;;5.50;2.72;;;12.00;76.80;;;;;;5066127;28;20086;-77
2021/11/18 13:06:44;;;;;;;4.95;2.65;;;12.00;76.70;;;;;;5056183;28;20029;-76
2021/11/18 13:09:13;;;;;;;5.78;2.88;;;12.00;76.90;;;;;;5052433;28;20045;-77
2021/11/18 13:11:50;;;;;;;6.72;2.85;;;12.10;76.70;;;;;;5055301;28;20050;-77
2021/11/18 13:14:53;;;;;;;6.38;2.78;;;12.10;76.80;;;;;;5056778;28;20040;-77
2021/11/18 13:17:22;;;;;;;5.75;2.95;;;12.10;76.90;;;;;;5071647;28;20384;-76
2021/11/18 13:19:49;;;;;;;6.55;3.15;;;12.20;76.80;;;;;;5054692;28;20035;-77
2021/11/18 13:22:18;;;;;;;5.22;2.78;;;12.20;76.80;;;;;;5054911;28;20044;-77